KHUM/HUM METAR and TAF weather

Enter ICAO airport designator
Station Type Date Time Source
KHUM METAR 2021/05/15 00:55 UTC NOAA

KHUM 150055Z AUTO 13004KT 10SM CLR 21/16 A3016 RMK AO2 T02080155


Station Type Date Time Source
KHUM Decoded METAR 2021/05/15 00:55 UTC NOAA

Houma-Terrebonne, LA, United States (KHUM) 29-34N 090-40W
May 14, 2021 - 08:55 PM EDT / 2021.05.15 0055 UTC
Wind: from the SE (130 degrees) at 5 MPH (4 KT):0
Visibility: 10 mile(s):0
Sky conditions: clear
Temperature: 69.4 F (20.8 C)
Dew Point: 59.9 F (15.5 C)
Relative Humidity: 71%
Pressure (altimeter): 30.16 in. Hg (1021 hPa)
ob: KHUM 150055Z AUTO 13004KT 10SM CLR 21/16 A3016 RMK AO2 T02080155
cycle: 1

Station Type Date Time Source
KHUM TAF 2021/05/14 18:42 UTC NOAA

TAF KHUM 141740Z 1418/1518 08008KT P6SM FEW040
FM151500 09010KT P6SM SKC

Example: see airport list